Saint Paul Island, Canada
Current Conditions -  °F | °C
As of 2:00 AM on Friday 31 Oct 2014 (Local Time) from CWZB Reporting Station
Scattered Clouds Scattered Clouds  
Wind Chill: 38°   Ceiling: Unl
Heat Index: 45°   Visibility: 9mi
Dew Point: 36°   Wind: 17mph
Humidity: 71%   Direction: 300°WNW
Pressure: 29.83"   Gusts: NA
Location:  47.21°N, 60.14°W
Report Text: CWZB 310500Z AUTO 30015KT 9SM SCT029 SCT041 07/02 A2983 RMK SLP100 PK WND 30021/// T00720023 70006 WSI/SWOB
Loading
Personal Weather Stations






























Interactive Weather Map
Tropical Storm Tracking
New forecast layout! Learn more

10-Day Weather Forecast

Advertisements
Track Severe Weather on mobile